createdAt,value
2018-04-29T00:01:10.555Z,13.40
2018-04-29T00:03:37.954Z,13.32
2018-04-29T00:06:05.338Z,13.23
2018-04-29T00:08:32.718Z,13.17
2018-04-29T00:11:00.116Z,13.09
2018-04-29T00:13:27.495Z,13.04
2018-04-29T00:15:54.893Z,12.95
2018-04-29T00:18:22.277Z,12.90
2018-04-29T00:20:49.674Z,12.83
2018-04-29T00:23:17.065Z,12.79
2018-04-29T00:25:44.451Z,12.71
2018-04-29T00:28:11.847Z,12.62
2018-04-29T00:30:39.234Z,12.60
2018-04-29T00:33:06.618Z,12.59
2018-04-29T00:35:34.010Z,12.54
2018-04-29T00:38:01.391Z,12.50
2018-04-29T00:40:28.779Z,12.44
2018-04-29T00:42:56.161Z,12.40
2018-04-29T00:45:23.560Z,12.39
2018-04-29T00:47:50.938Z,12.33
2018-04-29T00:50:18.323Z,12.30
2018-04-29T00:52:45.719Z,12.25
2018-04-29T00:55:13.103Z,12.26
2018-04-29T00:57:40.549Z,12.22
2018-04-29T01:00:07.914Z,12.18
2018-04-29T01:02:35.298Z,12.17
2018-04-29T01:05:02.686Z,12.16
2018-04-29T01:07:30.083Z,12.07
2018-04-29T01:09:57.460Z,11.93
2018-04-29T01:12:24.846Z,11.83
2018-04-29T01:14:52.235Z,11.90
2018-04-29T01:17:19.627Z,11.88
2018-04-29T01:19:47.015Z,11.86
2018-04-29T01:22:14.403Z,11.81
2018-04-29T01:24:41.792Z,11.78
2018-04-29T01:27:09.179Z,11.73
2018-04-29T01:29:36.637Z,11.71
2018-04-29T01:32:04.031Z,11.66
2018-04-29T01:34:31.423Z,11.60
2018-04-29T01:36:58.818Z,11.60
2018-04-29T01:39:26.207Z,11.60
2018-04-29T01:41:53.595Z,11.53
2018-04-29T01:44:20.983Z,11.31
2018-04-29T01:46:48.368Z,11.33
2018-04-29T01:49:15.825Z,11.28
2018-04-29T01:51:43.241Z,11.26
2018-04-29T01:54:10.611Z,11.30
2018-04-29T01:56:37.991Z,11.35
2018-04-29T01:59:05.714Z,11.36
2018-04-29T02:01:33.098Z,11.33
2018-04-29T02:04:00.474Z,11.28
2018-04-29T02:06:27.871Z,11.24
2018-04-29T02:08:55.654Z,11.22
2018-04-29T02:11:23.035Z,11.20
2018-04-29T02:13:50.415Z,11.19
2018-04-29T02:16:17.802Z,11.02
2018-04-29T02:18:45.187Z,10.96
2018-04-29T02:21:12.575Z,10.92
2018-04-29T02:23:39.963Z,10.85
2018-04-29T02:26:07.353Z,10.85
2018-04-29T02:28:34.735Z,10.76
2018-04-29T02:31:02.119Z,10.76
2018-04-29T02:33:29.503Z,10.79
2018-04-29T02:35:56.888Z,10.79
2018-04-29T02:38:24.270Z,10.81
2018-04-29T02:40:51.672Z,10.86
2018-04-29T02:43:19.044Z,10.89
2018-04-29T02:45:46.427Z,10.84
2018-04-29T02:48:13.818Z,10.75
2018-04-29T02:50:41.218Z,10.76
2018-04-29T02:53:08.611Z,10.76
2018-04-29T02:55:36.007Z,10.66
2018-04-29T02:58:03.396Z,10.63
2018-04-29T03:00:30.779Z,10.68
2018-04-29T03:02:58.170Z,10.65
2018-04-29T03:05:25.551Z,10.68
2018-04-29T03:07:52.947Z,10.61
2018-04-29T03:10:20.379Z,10.54
2018-04-29T03:12:47.774Z,10.48
2018-04-29T03:15:15.155Z,10.49
2018-04-29T03:17:42.548Z,10.50
2018-04-29T03:20:09.926Z,10.48
2018-04-29T03:22:37.318Z,10.47
2018-04-29T03:25:04.704Z,10.50
2018-04-29T03:27:32.092Z,10.49
2018-04-29T03:29:59.479Z,10.51
2018-04-29T03:32:26.866Z,10.47
2018-04-29T03:34:54.251Z,10.40
2018-04-29T03:37:21.635Z,10.41
2018-04-29T03:39:49.038Z,10.33
2018-04-29T03:42:16.411Z,10.30
2018-04-29T03:44:43.802Z,10.27
2018-04-29T03:47:11.182Z,10.27
2018-04-29T03:49:38.567Z,10.26
2018-04-29T03:52:05.959Z,10.24
2018-04-29T03:54:33.343Z,10.24
2018-04-29T03:57:12.570Z,10.30
2018-04-29T03:59:51.767Z,10.32
2018-04-29T04:02:30.977Z,10.36
2018-04-29T04:04:58.342Z,10.39
2018-04-29T04:07:25.727Z,10.41
2018-04-29T04:09:53.120Z,10.37
2018-04-29T04:12:20.509Z,10.38
2018-04-29T04:14:47.887Z,10.28
2018-04-29T04:17:15.282Z,10.30
2018-04-29T04:19:42.670Z,10.36
2018-04-29T04:22:10.047Z,10.38
2018-04-29T04:24:37.431Z,10.51
2018-04-29T04:27:04.821Z,10.53
2018-04-29T04:29:32.228Z,10.56
2018-04-29T04:31:59.959Z,10.53
2018-04-29T04:34:27.329Z,10.53
2018-04-29T04:36:54.719Z,10.53
2018-04-29T04:39:22.099Z,10.45
2018-04-29T04:41:49.486Z,10.48
2018-04-29T04:44:16.875Z,10.64
2018-04-29T04:46:44.560Z,10.72
2018-04-29T04:49:11.947Z,10.81
2018-04-29T04:51:39.331Z,10.88
2018-04-29T04:54:06.742Z,10.95
2018-04-29T04:56:34.155Z,10.98
2018-04-29T04:59:01.572Z,11.05
2018-04-29T05:01:28.991Z,11.14
2018-04-29T05:03:56.379Z,11.27
2018-04-29T05:06:23.781Z,11.34
2018-04-29T05:08:51.180Z,11.33
2018-04-29T05:11:18.558Z,11.32
2018-04-29T05:13:46.052Z,11.38
2018-04-29T05:16:13.351Z,11.43
2018-04-29T05:18:40.739Z,11.52
2018-04-29T05:21:08.119Z,11.59
2018-04-29T05:23:35.512Z,11.71
2018-04-29T05:26:02.902Z,11.84
2018-04-29T05:28:30.362Z,11.92
2018-04-29T05:30:57.748Z,12.04
2018-04-29T05:33:25.158Z,12.18
2018-04-29T05:35:52.554Z,12.24
2018-04-29T05:38:19.961Z,12.30
2018-04-29T05:40:47.347Z,12.36
2018-04-29T05:43:14.722Z,12.43
2018-04-29T05:45:42.124Z,12.31
2018-04-29T05:48:09.495Z,12.19
2018-04-29T05:50:36.891Z,12.07
2018-04-29T05:53:04.279Z,11.94
2018-04-29T05:55:31.660Z,12.03
2018-04-29T05:57:59.334Z,12.20
2018-04-29T06:00:26.860Z,12.34
2018-04-29T06:02:54.158Z,12.41
2018-04-29T06:05:21.552Z,12.44
2018-04-29T06:07:48.930Z,12.27
2018-04-29T06:10:16.315Z,12.19
2018-04-29T06:12:43.755Z,12.12
2018-04-29T06:15:11.115Z,12.23
2018-04-29T06:17:38.502Z,12.38
2018-04-29T06:20:06.722Z,12.38
2018-04-29T06:22:34.111Z,12.41
2018-04-29T06:25:01.490Z,12.41
2018-04-29T06:27:28.874Z,12.61
2018-04-29T06:29:56.256Z,12.72
2018-04-29T06:32:23.646Z,12.79
2018-04-29T06:34:51.027Z,12.90
2018-04-29T06:37:18.416Z,13.00
2018-04-29T06:39:45.802Z,13.11
2018-04-29T06:42:13.183Z,13.03
2018-04-29T06:44:40.562Z,12.93
2018-04-29T06:47:08.019Z,13.18
2018-04-29T06:49:35.399Z,13.37
2018-04-29T06:52:02.802Z,13.42
2018-04-29T06:54:30.171Z,13.49
2018-04-29T06:56:57.554Z,13.45
2018-04-29T06:59:24.939Z,13.45
2018-04-29T07:01:52.322Z,13.35
2018-04-29T07:04:19.710Z,13.21
2018-04-29T07:06:47.094Z,13.25
2018-04-29T07:09:14.478Z,13.22
2018-04-29T07:11:41.883Z,13.20
2018-04-29T07:14:09.281Z,13.11
2018-04-29T07:16:36.659Z,13.13
2018-04-29T07:19:04.044Z,12.96
2018-04-29T07:21:31.503Z,12.93
2018-04-29T07:23:58.998Z,13.03
2018-04-29T07:26:26.350Z,13.03
2018-04-29T07:28:53.730Z,13.17
2018-04-29T07:31:21.208Z,13.27
2018-04-29T07:33:48.580Z,13.50
2018-04-29T07:36:15.969Z,13.73
2018-04-29T07:38:43.494Z,13.88
2018-04-29T07:41:10.880Z,13.81
2018-04-29T07:43:38.259Z,13.68
2018-04-29T07:46:05.642Z,13.66
2018-04-29T07:48:33.026Z,13.90
2018-04-29T07:51:00.414Z,13.92
2018-04-29T07:53:27.798Z,13.91
2018-04-29T07:55:55.194Z,13.83
2018-04-29T07:58:22.578Z,13.81
2018-04-29T08:00:50.049Z,13.83
2018-04-29T08:03:17.355Z,13.89
2018-04-29T08:05:45.120Z,13.88
2018-04-29T08:08:12.499Z,13.83
2018-04-29T08:10:40.031Z,14.06
2018-04-29T08:13:07.422Z,14.34
2018-04-29T08:15:34.980Z,14.56
2018-04-29T08:18:02.343Z,14.77
2018-04-29T08:20:29.724Z,14.90
2018-04-29T08:22:57.110Z,14.93
2018-04-29T08:25:24.492Z,14.85
2018-04-29T08:27:51.970Z,14.82
2018-04-29T08:30:19.355Z,14.82
2018-04-29T08:32:46.744Z,14.78
2018-04-29T08:35:14.162Z,14.79
2018-04-29T08:37:41.554Z,14.90
2018-04-29T08:40:08.935Z,15.25
2018-04-29T08:42:36.323Z,15.67
2018-04-29T08:45:03.714Z,15.95
2018-04-29T08:47:31.106Z,16.22
2018-04-29T08:49:58.496Z,16.46
2018-04-29T08:52:25.875Z,16.64
2018-04-29T08:54:53.547Z,16.70
2018-04-29T08:57:20.862Z,16.59
2018-04-29T08:59:48.272Z,16.54
2018-04-29T09:02:15.644Z,16.37
2018-04-29T09:04:43.075Z,16.53
2018-04-29T09:07:10.458Z,16.53
2018-04-29T09:09:37.857Z,16.57
2018-04-29T09:12:05.234Z,16.62
2018-04-29T09:14:32.706Z,16.77
2018-04-29T09:17:00.103Z,16.87
2018-04-29T09:19:27.547Z,16.94
2018-04-29T09:21:54.926Z,17.04
2018-04-29T09:24:22.319Z,17.19
2018-04-29T09:26:49.700Z,17.24
2018-04-29T09:29:17.079Z,17.42
2018-04-29T09:31:44.467Z,17.62
2018-04-29T09:34:11.864Z,17.95
2018-04-29T09:36:39.267Z,18.19
2018-04-29T09:39:06.627Z,18.48
2018-04-29T09:41:34.011Z,18.83
2018-04-29T09:44:01.398Z,19.31
2018-04-29T09:46:28.796Z,19.82
2018-04-29T09:48:56.215Z,19.92
2018-04-29T09:51:23.599Z,20.08
2018-04-29T09:53:50.987Z,20.19
2018-04-29T09:56:18.366Z,19.97
2018-04-29T09:58:45.756Z,19.95
2018-04-29T10:01:18.204Z,19.91
2018-04-29T10:03:47.404Z,19.96
2018-04-29T10:06:14.783Z,19.84
2018-04-29T10:08:42.174Z,20.13
2018-04-29T10:11:09.584Z,20.60
2018-04-29T10:13:36.963Z,21.18
2018-04-29T10:16:05.359Z,21.91
2018-04-29T10:18:32.747Z,22.21
2018-04-29T10:21:00.176Z,22.32
2018-04-29T10:23:27.571Z,22.04
2018-04-29T10:25:54.970Z,21.84
2018-04-29T10:28:22.376Z,21.97
2018-04-29T10:30:49.760Z,21.88
2018-04-29T10:33:17.154Z,21.85
2018-04-29T10:35:44.535Z,21.94
2018-04-29T10:38:11.924Z,21.88
2018-04-29T10:40:39.311Z,21.62
2018-04-29T10:43:06.702Z,21.33
2018-04-29T10:45:34.086Z,21.04
2018-04-29T10:48:01.472Z,20.83
2018-04-29T10:50:28.870Z,20.78
2018-04-29T10:52:56.264Z,20.92
2018-04-29T10:55:23.650Z,21.06
2018-04-29T10:57:51.035Z,21.10
2018-04-29T11:00:18.426Z,21.20
2018-04-29T11:02:45.810Z,21.23
2018-04-29T11:05:13.209Z,21.42
2018-04-29T11:07:40.591Z,21.66
2018-04-29T11:10:07.979Z,21.87
2018-04-29T11:12:35.362Z,21.96
2018-04-29T11:15:02.747Z,21.99
2018-04-29T11:17:30.127Z,22.05
2018-04-29T11:19:57.527Z,22.40
2018-04-29T11:22:24.905Z,22.55
2018-04-29T11:24:52.306Z,22.36
2018-04-29T11:27:19.684Z,22.25
2018-04-29T11:29:47.073Z,22.15
2018-04-29T11:32:14.462Z,21.88
2018-04-29T11:34:41.843Z,21.50
2018-04-29T11:37:09.317Z,21.22
2018-04-29T11:39:36.683Z,20.99
2018-04-29T11:42:04.075Z,20.60
2018-04-29T11:44:31.459Z,20.26
2018-04-29T11:46:58.851Z,20.03
2018-04-29T11:49:26.234Z,19.98
2018-04-29T11:51:53.627Z,20.06
2018-04-29T11:54:21.015Z,20.22
2018-04-29T11:56:48.402Z,20.28
2018-04-29T11:59:15.784Z,20.33
2018-04-29T12:01:43.174Z,20.44
2018-04-29T12:04:10.626Z,20.56
2018-04-29T12:06:38.400Z,20.71
2018-04-29T12:09:05.775Z,20.90
2018-04-29T12:11:33.163Z,21.20
2018-04-29T12:14:00.556Z,21.44
2018-04-29T12:16:28.009Z,22.17
2018-04-29T12:18:55.334Z,22.63
2018-04-29T12:21:22.723Z,22.97
2018-04-29T12:23:50.108Z,23.16
2018-04-29T12:26:17.495Z,23.15
2018-04-29T12:28:44.891Z,23.06
2018-04-29T12:31:12.271Z,23.25
2018-04-29T12:33:39.691Z,23.55
2018-04-29T12:36:07.039Z,24.05
2018-04-29T12:38:34.432Z,24.18
2018-04-29T12:41:01.815Z,24.19
2018-04-29T12:43:29.200Z,24.34
2018-04-29T12:45:56.582Z,24.43
2018-04-29T12:48:23.978Z,24.11
2018-04-29T12:50:51.366Z,23.75
2018-04-29T12:53:18.751Z,23.46
2018-04-29T12:55:46.138Z,23.52
2018-04-29T12:58:13.518Z,23.73
2018-04-29T13:00:40.907Z,23.97
2018-04-29T13:03:08.295Z,24.49
2018-04-29T13:05:35.740Z,24.86
2018-04-29T13:08:03.063Z,24.97
2018-04-29T13:10:30.454Z,24.73
2018-04-29T13:12:57.834Z,24.58
2018-04-29T13:15:25.234Z,24.46
2018-04-29T13:17:52.613Z,24.68
2018-04-29T13:20:20.002Z,24.86
2018-04-29T13:22:47.378Z,25.03
2018-04-29T13:25:14.771Z,24.93
2018-04-29T13:27:42.163Z,24.69
2018-04-29T13:30:09.554Z,24.73
2018-04-29T13:32:36.972Z,24.80
2018-04-29T13:35:04.367Z,24.83
2018-04-29T13:37:31.856Z,24.72
2018-04-29T13:39:59.255Z,24.98
2018-04-29T13:42:26.706Z,25.27
2018-04-29T13:44:54.042Z,25.18
2018-04-29T13:47:21.439Z,24.88
2018-04-29T13:49:48.825Z,24.71
2018-04-29T13:52:16.249Z,24.68
2018-04-29T13:54:43.603Z,24.73
2018-04-29T13:57:11.004Z,24.55
2018-04-29T13:59:38.384Z,24.24
2018-04-29T14:02:05.778Z,24.14
2018-04-29T14:04:33.153Z,24.14
2018-04-29T14:07:00.543Z,23.92
2018-04-29T14:09:27.931Z,23.67
2018-04-29T14:11:55.311Z,23.55
2018-04-29T14:14:22.698Z,23.31
2018-04-29T14:16:50.075Z,23.16
2018-04-29T14:19:17.473Z,23.13
2018-04-29T14:21:44.856Z,23.09
2018-04-29T14:24:12.250Z,23.10
2018-04-29T14:26:39.647Z,23.28
2018-04-29T14:29:07.036Z,23.44
2018-04-29T14:31:34.411Z,23.51
2018-04-29T14:34:01.803Z,23.48
2018-04-29T14:36:29.194Z,23.45
2018-04-29T14:38:56.594Z,23.39
2018-04-29T14:41:23.982Z,23.49
2018-04-29T14:43:51.383Z,23.52
2018-04-29T14:46:18.773Z,23.60
2018-04-29T14:48:46.154Z,23.67
2018-04-29T14:51:13.542Z,23.68
2018-04-29T14:53:40.931Z,23.68
2018-04-29T14:56:08.322Z,23.70
2018-04-29T14:58:35.703Z,23.64
2018-04-29T15:01:03.094Z,23.55
2018-04-29T15:03:30.485Z,23.45
2018-04-29T15:05:57.874Z,23.26
2018-04-29T15:08:25.266Z,23.28
2018-04-29T15:10:52.651Z,23.38
2018-04-29T15:13:20.047Z,23.44
2018-04-29T15:15:47.436Z,23.50
2018-04-29T15:18:26.403Z,23.56
2018-04-29T15:20:53.782Z,23.66
2018-04-29T15:23:21.199Z,23.69
2018-04-29T15:25:48.720Z,23.64
2018-04-29T15:28:15.978Z,23.65
2018-04-29T15:30:43.359Z,23.62
2018-04-29T15:33:10.751Z,23.59
2018-04-29T15:35:38.133Z,23.58
2018-04-29T15:38:05.516Z,23.58
2018-04-29T15:40:32.919Z,23.68
2018-04-29T15:43:00.296Z,23.78
2018-04-29T15:45:27.679Z,23.80
2018-04-29T15:47:55.067Z,23.78
2018-04-29T15:50:22.451Z,23.71
2018-04-29T15:52:49.838Z,23.49
2018-04-29T15:55:17.239Z,23.32
2018-04-29T15:57:44.622Z,23.27
2018-04-29T16:00:12.064Z,23.20
2018-04-29T16:02:39.435Z,23.13
2018-04-29T16:05:06.814Z,23.09
2018-04-29T16:07:34.274Z,23.09
2018-04-29T16:10:01.667Z,23.14
2018-04-29T16:12:29.050Z,23.22
2018-04-29T16:14:56.430Z,23.33
2018-04-29T16:17:23.861Z,23.43
2018-04-29T16:19:51.235Z,23.47
2018-04-29T16:22:18.629Z,23.67
2018-04-29T16:24:46.018Z,23.81
2018-04-29T16:27:13.410Z,23.82
2018-04-29T16:29:40.791Z,23.72
2018-04-29T16:32:08.183Z,23.79
2018-04-29T16:34:35.567Z,23.84
2018-04-29T16:37:02.974Z,23.82
2018-04-29T16:39:30.362Z,23.75
2018-04-29T16:41:57.740Z,23.66
2018-04-29T16:44:25.127Z,23.60
2018-04-29T16:46:52.606Z,23.47
2018-04-29T16:49:19.983Z,23.39
2018-04-29T16:51:49.074Z,23.33
2018-04-29T16:54:16.480Z,23.21
2018-04-29T16:56:43.871Z,23.19
2018-04-29T16:59:11.262Z,23.11
2018-04-29T17:01:38.712Z,23.24
2018-04-29T17:04:06.091Z,23.28
2018-04-29T17:06:33.470Z,23.03
2018-04-29T17:09:00.864Z,22.86
2018-04-29T17:11:28.247Z,22.80
2018-04-29T17:13:55.644Z,22.70
2018-04-29T17:16:23.024Z,22.59
2018-04-29T17:18:50.645Z,22.39
2018-04-29T17:21:18.051Z,22.23
2018-04-29T17:23:45.432Z,22.22
2018-04-29T17:26:12.824Z,21.90
2018-04-29T17:28:40.203Z,21.85
2018-04-29T17:31:07.592Z,21.77
2018-04-29T17:33:34.970Z,21.74
2018-04-29T17:36:02.363Z,21.73
2018-04-29T17:38:29.824Z,21.64
2018-04-29T17:40:57.215Z,21.56
2018-04-29T17:43:24.606Z,21.49
2018-04-29T17:45:51.991Z,21.60
2018-04-29T17:48:19.378Z,21.50
2018-04-29T17:50:46.768Z,21.47
2018-04-29T17:53:14.156Z,21.49
2018-04-29T17:55:41.541Z,21.41
2018-04-29T17:58:08.929Z,21.37
2018-04-29T18:00:36.310Z,21.22
2018-04-29T18:03:03.707Z,21.10
2018-04-29T18:05:31.086Z,21.01
2018-04-29T18:07:58.466Z,20.91
2018-04-29T18:10:25.860Z,20.80
2018-04-29T18:12:53.238Z,20.75
2018-04-29T18:15:20.627Z,20.68
2018-04-29T18:17:48.019Z,20.59
2018-04-29T18:20:15.411Z,20.50
2018-04-29T18:22:42.786Z,20.47
2018-04-29T18:25:10.191Z,20.46
2018-04-29T18:27:37.574Z,20.49
2018-04-29T18:30:04.955Z,20.55
2018-04-29T18:32:32.347Z,20.56
2018-04-29T18:34:59.749Z,20.58
2018-04-29T18:37:27.130Z,20.56
2018-04-29T18:39:54.522Z,20.53
2018-04-29T18:42:21.906Z,20.54
2018-04-29T18:44:49.363Z,20.51
2018-04-29T18:47:16.686Z,20.49
2018-04-29T18:49:44.070Z,20.44
2018-04-29T18:52:11.451Z,20.44
2018-04-29T18:54:38.847Z,20.37
2018-04-29T18:57:06.226Z,20.37
2018-04-29T18:59:33.615Z,20.35
2018-04-29T19:02:01.355Z,20.28
2018-04-29T19:04:28.744Z,20.30
2018-04-29T19:06:56.126Z,20.26
2018-04-29T19:09:23.624Z,20.23
2018-04-29T19:11:50.995Z,20.25
2018-04-29T19:14:18.384Z,20.16
2018-04-29T19:16:45.782Z,20.10
2018-04-29T19:19:13.159Z,20.08
2018-04-29T19:21:40.561Z,20.04
2018-04-29T19:24:08.099Z,20.01
2018-04-29T19:26:35.337Z,20.00
2018-04-29T19:29:02.719Z,20.03
2018-04-29T19:31:30.181Z,20.04
2018-04-29T19:33:57.503Z,19.97
2018-04-29T19:36:24.898Z,19.97
2018-04-29T19:38:52.291Z,19.94
2018-04-29T19:41:19.670Z,19.96
2018-04-29T19:43:47.102Z,19.90
2018-04-29T19:46:14.484Z,19.80
2018-04-29T19:48:41.878Z,19.80
2018-04-29T19:51:09.333Z,19.79
2018-04-29T19:53:36.646Z,19.80
2018-04-29T19:56:04.023Z,19.81
2018-04-29T19:58:31.407Z,19.83
2018-04-29T20:00:58.799Z,19.86
2018-04-29T20:03:26.192Z,19.83
2018-04-29T20:05:53.578Z,19.77
2018-04-29T20:08:20.984Z,19.70
2018-04-29T20:10:48.371Z,19.71
2018-04-29T20:13:15.759Z,19.69
2018-04-29T20:15:43.152Z,19.70
2018-04-29T20:18:10.539Z,19.73
2018-04-29T20:20:37.918Z,19.70
2018-04-29T20:23:05.318Z,19.64
2018-04-29T20:25:32.695Z,19.61
2018-04-29T20:28:00.083Z,19.61
2018-04-29T20:30:27.470Z,19.59
2018-04-29T20:32:54.858Z,19.62
2018-04-29T20:35:22.242Z,19.66
2018-04-29T20:37:49.644Z,19.68
2018-04-29T20:40:17.038Z,19.70
2018-04-29T20:42:44.426Z,19.72
2018-04-29T20:45:11.891Z,19.73
2018-04-29T20:47:39.202Z,19.74
2018-04-29T20:50:06.585Z,19.73
2018-04-29T20:52:33.962Z,19.75
2018-04-29T20:55:01.351Z,19.73
2018-04-29T20:57:28.734Z,19.74
2018-04-29T20:59:56.123Z,19.74
2018-04-29T21:02:23.504Z,19.67
2018-04-29T21:04:50.890Z,19.63
2018-04-29T21:07:18.282Z,19.70
2018-04-29T21:09:45.670Z,19.63
2018-04-29T21:12:13.054Z,19.64
2018-04-29T21:14:40.500Z,19.60
2018-04-29T21:17:07.880Z,19.60
2018-04-29T21:19:35.267Z,19.58
2018-04-29T21:22:02.656Z,19.63
2018-04-29T21:24:30.043Z,19.61
2018-04-29T21:26:57.435Z,19.65
2018-04-29T21:29:24.829Z,19.57
2018-04-29T21:31:52.207Z,19.58
2018-04-29T21:34:19.595Z,19.58
2018-04-29T21:36:46.991Z,19.62
2018-04-29T21:39:14.374Z,19.57
2018-04-29T21:41:41.763Z,19.54
2018-04-29T21:44:09.147Z,19.55
2018-04-29T21:46:36.535Z,19.58
2018-04-29T21:49:03.928Z,19.58
2018-04-29T21:51:31.400Z,19.59
2018-04-29T21:53:58.790Z,19.62
2018-04-29T21:56:26.175Z,19.59
2018-04-29T21:58:53.566Z,19.61
2018-04-29T22:01:20.952Z,19.63
2018-04-29T22:03:48.332Z,19.66
2018-04-29T22:06:15.727Z,19.69
2018-04-29T22:08:43.117Z,19.72
2018-04-29T22:11:10.507Z,19.77
2018-04-29T22:13:37.887Z,19.82
2018-04-29T22:16:05.280Z,19.82
2018-04-29T22:18:32.739Z,19.74
2018-04-29T22:21:00.490Z,19.57
2018-04-29T22:23:27.876Z,19.47
2018-04-29T22:25:55.323Z,19.05
2018-04-29T22:28:22.846Z,18.84
2018-04-29T22:30:50.242Z,18.73
2018-04-29T22:33:17.631Z,18.45
2018-04-29T22:35:45.011Z,18.28
2018-04-29T22:38:12.400Z,18.06
2018-04-29T22:40:39.786Z,17.89
2018-04-29T22:43:07.174Z,17.63
2018-04-29T22:45:34.563Z,17.49
2018-04-29T22:48:01.982Z,17.23
2018-04-29T22:50:29.362Z,16.90
2018-04-29T22:52:57.216Z,16.95
2018-04-29T22:55:24.602Z,16.88
2018-04-29T22:57:51.992Z,16.86
2018-04-29T23:00:19.383Z,16.80
2018-04-29T23:02:46.782Z,16.68
2018-04-29T23:05:14.162Z,16.61
2018-04-29T23:07:41.546Z,16.53
2018-04-29T23:10:09.003Z,16.41
2018-04-29T23:12:36.394Z,16.29
2018-04-29T23:15:03.775Z,16.17
2018-04-29T23:17:31.163Z,16.17
2018-04-29T23:19:58.831Z,16.04
2018-04-29T23:22:26.219Z,16.08
2018-04-29T23:24:53.611Z,15.99
2018-04-29T23:27:21.011Z,15.89
2018-04-29T23:29:48.391Z,15.76
2018-04-29T23:32:15.783Z,15.76
2018-04-29T23:34:43.175Z,15.72
2018-04-29T23:37:10.570Z,15.80
2018-04-29T23:39:37.956Z,15.79
2018-04-29T23:42:05.351Z,15.59
2018-04-29T23:44:32.739Z,15.41
2018-04-29T23:47:00.135Z,15.34
2018-04-29T23:49:27.531Z,15.33
2018-04-29T23:51:54.914Z,15.30
2018-04-29T23:54:22.307Z,15.18
2018-04-29T23:56:49.694Z,15.03
2018-04-29T23:59:17.083Z,15.03
